Point Lay, AK

3:59 AM AKDT on July 29, 2014 (GMT -0800)
Point Lay (PPIZ) Elev 23 ft | 69.73 °N, 163.01 °W | Change Station

Current weather conditions updated 1 hour ago

Clear
Clear
40 °F
Feels Like 34 °F
N
9
Wind Variable Wind from NE

Today is forecast to be nearly the same temperature as yesterday.

Today
High -- | Low -- °F
--% Chance of Precip.
Yesterday
High -- | Low -- °F
Precip. -- in
4:03 AM 1:45 AM
Waxing Crescent, 6% visible
Pressure 30.37 in
Visibility 10.0 miles
Clouds Clear
Windchill 34 °F
Dew Point 38 °F
Humidity 93%
Rainfall 0.00 in
Snow Depth Not available.
UV 0 out of 12
Pollen Not available.
Air Quality Not available.
Flu Activity Not available.
METAR PPIZ 291056Z AUTO 05008KT 10SM CLR 04/03 A3036 RMK AO2 TSNO T00440033 SLP283 $

More Conditions Fewer Conditions

Pressure 30.37 in
Visibility 10.0 miles
Clouds Clear
Windchill 34 °F
Dew Point 38 °F
Humidity 93%
Rainfall 0.00 in
Snow Depth Not available.
UV 0 out of 12
Pollen Not available.
Air Quality Not available.
Flu Activity Not available.
METAR PPIZ 291056Z AUTO 05008KT 10SM CLR 04/03 A3036 RMK AO2 TSNO T00440033 SLP283 $

More Conditions Fewer Conditions

10-Day Weather Forecast

Almanac

Astronomy

Jul. 29, 2014 Rise Set
Actual Time 4:03 AM AKDT 1:45 AM AKDT
Civil Twilight Sun does not rise Sun does not rise
Nautical Twilight Sun does not rise Sun does not rise
Astronomical Twilight Sun does not rise Sun does not rise
Moon 9:51 AM AKDT 11:53 PM AKDT
Length of Visible Light 24h 00m
Length of Day
21h 42m
Tomorrow will be 18m 39s shorter.
Waxing Crescent, 6% of the Moon is Illuminated
Today
Waxing Crescent
Aug 3
First Quarter
Aug 10
Full
Aug 17
Last Quarter
Aug 25
New

Today's Extremes

State Highs State Lows

Community

WunderPhotos

Upload Photos

1,738,690 photos uploaded!

WunderBlogs® & News

By Dr. Jeff Masters
Director of Meteorology, Weather Underground
By Kari Strenfel
Meteorologist, Weather Underground
By Christopher C. Burt
Weather Historian, Weather Underground
July 29, 2014
July 29, 2014
July 29, 2014

Nearby

Snow Depth

Station Depth Elevation
Imnaviat Creek 0 in 3050 ft
Atigun Pass 0 in 4800 ft
Rocky Point 2 in 500 ft
Coldfoot 0 in 1040 ft
Gobblers Knob 0 in 2030 ft

Earthquake Activity

City Distance Mag. Time & Date
No recent earthquake activity has been reported nearby.
Minimum magnitude displayed is 2.5.

Coastal Water Temperatures

Place Temperature
No Stations Reporting

Nearby Weather Stations

There are no personal weather stations in this area.